Ralston, Pennsylvania
Current Conditions -  °F | °C
As of 4:54 AM on Friday 28 Nov 2014 (Local Time) from KIPT Reporting Station
Few Clouds Few Clouds  
Wind Chill: 22°   Ceiling: Unl
Heat Index: 30°   Visibility: 10mi
Dew Point: 19°   Wind: 8mph
Humidity: 64%   Direction: 290°WNW
Pressure: 30.15"   Gusts: NA
Location:  41.51°N, 76.95°W
Report Text: KIPT 280954Z AUTO 29007KT 10SM FEW075 FEW095 M01/M07 A3015 RMK AO2 SLP215 T10111072
Loading
Personal Weather Stations






























Interactive Weather Map New forecast layout! Learn more

10-Day Weather Forecast

Advertisements
Track Severe Weather on mobile